createdAt,value
2023-04-02T00:01:44.478Z,10.53
2023-04-02T00:04:22.238Z,10.55
2023-04-02T00:06:56.846Z,10.46
2023-04-02T00:09:34.174Z,10.55
2023-04-02T00:12:18.801Z,10.53
2023-04-02T00:14:47.785Z,10.77
2023-04-02T00:17:16.190Z,10.49
2023-04-02T00:19:49.834Z,10.72
2023-04-02T00:22:20.953Z,10.42
2023-04-02T00:24:53.623Z,11.07
2023-04-02T00:27:21.922Z,11.91
2023-04-02T00:29:51.312Z,10.42
2023-04-02T00:32:23.495Z,10.16
2023-04-02T00:34:51.941Z,10.09
2023-04-02T00:37:25.135Z,10.49
2023-04-02T00:39:57.698Z,10.96
2023-04-02T00:42:26.484Z,11.10
2023-04-02T00:44:55.986Z,11.69
2023-04-02T00:47:30.654Z,12.59
2023-04-02T00:50:02.213Z,11.83
2023-04-02T00:52:33.948Z,12.19
2023-04-02T00:55:07.489Z,12.14
2023-04-02T00:57:36.495Z,10.34
2023-04-02T01:00:20.420Z,11.21
2023-04-02T01:03:28.661Z,11.69
2023-04-02T01:06:02.739Z,11.63
2023-04-02T01:08:42.159Z,11.58
2023-04-02T01:11:23.398Z,11.67
2023-04-02T01:13:59.465Z,10.23
2023-04-02T01:16:38.630Z,10.21
2023-04-02T01:19:22.483Z,9.90
2023-04-02T01:21:57.132Z,9.92
2023-04-02T01:24:32.594Z,10.01
2023-04-02T01:27:02.684Z,9.85
2023-04-02T01:29:35.843Z,9.97
2023-04-02T01:32:07.694Z,9.84
2023-04-02T01:34:36.661Z,10.14
2023-04-02T01:37:15.132Z,10.09
2023-04-02T01:39:55.313Z,10.60
2023-04-02T01:42:29.580Z,10.28
2023-04-02T01:45:04.001Z,11.55
2023-04-02T01:47:33.187Z,11.52
2023-04-02T01:50:03.828Z,10.52
2023-04-02T01:52:40.581Z,10.38
2023-04-02T01:55:10.359Z,10.59
2023-04-02T01:57:38.595Z,11.11
2023-04-02T02:00:13.623Z,12.09
2023-04-02T02:02:43.080Z,11.16
2023-04-02T02:05:15.049Z,11.04
2023-04-02T02:07:46.516Z,11.29
2023-04-02T02:10:18.921Z,11.20
2023-04-02T02:12:47.984Z,11.32
2023-04-02T02:15:19.802Z,12.48
2023-04-02T02:17:48.554Z,12.05
2023-04-02T02:20:17.742Z,12.06
2023-04-02T02:22:48.232Z,12.36
2023-04-02T02:25:18.464Z,11.97
2023-04-02T02:27:55.508Z,12.44
2023-04-02T02:30:29.868Z,11.73
2023-04-02T02:33:04.759Z,11.09
2023-04-02T02:35:38.413Z,11.93
2023-04-02T02:38:28.998Z,11.28
2023-04-02T02:41:07.693Z,11.15
2023-04-02T02:43:40.170Z,11.37
2023-04-02T02:46:14.776Z,10.73
2023-04-02T02:48:43.896Z,10.88
2023-04-02T02:51:21.886Z,11.52
2023-04-02T02:53:54.567Z,11.88
2023-04-02T02:56:24.597Z,11.76
2023-04-02T02:58:54.348Z,11.75
2023-04-02T03:01:32.118Z,12.10
2023-04-02T03:04:04.704Z,11.95
2023-04-02T03:06:32.939Z,10.97
2023-04-02T03:09:09.322Z,10.59
2023-04-02T03:11:45.107Z,10.47
2023-04-02T03:14:25.711Z,10.03
2023-04-02T03:17:01.655Z,10.14
2023-04-02T03:19:36.795Z,10.17
2023-04-02T03:22:12.434Z,10.10
2023-04-02T03:24:50.315Z,10.30
2023-04-02T03:27:21.668Z,10.51
2023-04-02T03:30:02.973Z,10.26
2023-04-02T03:32:38.587Z,9.90
2023-04-02T03:35:11.688Z,9.67
2023-04-02T03:37:45.274Z,9.98
2023-04-02T03:40:19.643Z,10.36
2023-04-02T03:42:52.012Z,9.84
2023-04-02T03:45:23.722Z,9.95
2023-04-02T03:48:00.446Z,9.82
2023-04-02T03:50:32.308Z,9.68
2023-04-02T03:53:03.851Z,9.66
2023-04-02T03:55:37.262Z,9.58
2023-04-02T03:58:12.850Z,9.11
2023-04-02T04:00:47.752Z,9.21
2023-04-02T04:03:20.986Z,9.16
2023-04-02T04:05:53.468Z,9.21
2023-04-02T04:08:26.841Z,9.20
2023-04-02T04:10:58.740Z,9.07
2023-04-02T04:13:36.282Z,8.85
2023-04-02T04:16:07.617Z,8.81
2023-04-02T04:18:44.709Z,8.86
2023-04-02T04:21:29.745Z,8.90
2023-04-02T04:24:04.512Z,8.90
2023-04-02T04:26:42.085Z,8.91
2023-04-02T04:29:19.479Z,9.02
2023-04-02T04:31:50.467Z,8.87
2023-04-02T04:34:29.995Z,8.82
2023-04-02T04:37:01.757Z,8.86
2023-04-02T04:39:44.797Z,9.04
2023-04-02T04:42:20.620Z,8.95
2023-04-02T04:44:55.366Z,8.80
2023-04-02T04:47:30.867Z,8.61
2023-04-02T04:50:08.054Z,8.70
2023-04-02T04:52:41.873Z,8.73
2023-04-02T04:55:26.939Z,8.77
2023-04-02T04:57:57.586Z,8.59
2023-04-02T05:00:33.983Z,8.85
2023-04-02T05:03:09.253Z,9.07
2023-04-02T05:05:41.339Z,9.02
2023-04-02T05:08:15.997Z,9.32
2023-04-02T05:10:48.315Z,9.79
2023-04-02T05:13:22.310Z,9.66
2023-04-02T05:15:56.530Z,10.37
2023-04-02T05:18:30.254Z,10.89
2023-04-02T05:21:07.394Z,11.07
2023-04-02T05:23:45.168Z,11.20
2023-04-02T05:26:18.599Z,11.52
2023-04-02T05:28:53.852Z,11.35
2023-04-02T05:31:26.999Z,11.27
2023-04-02T05:33:57.268Z,11.41
2023-04-02T05:36:30.098Z,11.57
2023-04-02T05:39:00.915Z,11.73
2023-04-02T05:41:40.385Z,11.95
2023-04-02T05:44:13.857Z,11.24
2023-04-02T05:46:47.999Z,11.46
2023-04-02T05:49:26.682Z,11.03
2023-04-02T05:52:01.527Z,10.84
2023-04-02T05:54:33.750Z,10.77
2023-04-02T05:57:06.031Z,11.34
2023-04-02T05:59:38.757Z,11.51
2023-04-02T06:02:12.674Z,11.25
2023-04-02T06:04:47.348Z,11.52
2023-04-02T06:07:20.969Z,11.86
2023-04-02T06:09:58.012Z,11.48
2023-04-02T06:12:33.017Z,11.46
2023-04-02T06:15:01.943Z,11.56
2023-04-02T06:17:43.365Z,11.36
2023-04-02T06:20:17.309Z,11.63
2023-04-02T06:22:52.396Z,11.38
2023-04-02T06:25:25.787Z,11.62
2023-04-02T06:27:57.892Z,11.66
2023-04-02T06:30:29.438Z,11.84
2023-04-02T06:32:58.022Z,11.05
2023-04-02T06:35:27.658Z,11.04
2023-04-02T06:38:05.090Z,10.67
2023-04-02T06:40:41.686Z,10.69
2023-04-02T06:43:38.359Z,11.09
2023-04-02T06:46:28.446Z,10.83
2023-04-02T06:49:14.044Z,11.04
2023-04-02T06:51:45.889Z,10.33
2023-04-02T06:54:18.736Z,9.82
2023-04-02T06:56:52.558Z,9.98
2023-04-02T06:59:27.229Z,10.37
2023-04-02T07:02:03.449Z,10.16
2023-04-02T07:04:32.226Z,10.69
2023-04-02T07:07:00.665Z,10.44
2023-04-02T07:09:33.742Z,10.95
2023-04-02T07:12:03.630Z,10.95
2023-04-02T07:14:31.529Z,11.59
2023-04-02T07:16:59.389Z,10.99
2023-04-02T07:19:27.086Z,10.80
2023-04-02T07:21:57.909Z,10.35
2023-04-02T07:24:30.981Z,10.27
2023-04-02T07:27:00.283Z,10.96
2023-04-02T07:29:28.116Z,10.16
2023-04-02T07:31:56.012Z,10.57
2023-04-02T07:34:24.675Z,10.06
2023-04-02T07:36:52.535Z,10.83
2023-04-02T07:39:20.314Z,10.69
2023-04-02T07:41:56.378Z,10.11
2023-04-02T07:44:25.743Z,10.35
2023-04-02T07:46:53.671Z,10.96
2023-04-02T07:49:22.248Z,11.57
2023-04-02T07:51:50.459Z,11.21
2023-04-02T07:54:18.129Z,10.99
2023-04-02T07:56:45.952Z,11.46
2023-04-02T07:59:13.726Z,12.17
2023-04-02T08:01:43.024Z,12.69
2023-04-02T08:04:19.376Z,11.42
2023-04-02T08:06:47.842Z,12.35
2023-04-02T08:09:16.129Z,11.00
2023-04-02T08:11:44.772Z,12.13
2023-04-02T08:14:12.928Z,11.65
2023-04-02T08:16:50.107Z,12.63
2023-04-02T08:19:18.681Z,13.16
2023-04-02T08:21:49.932Z,12.56
2023-04-02T08:24:19.046Z,12.57
2023-04-02T08:26:47.383Z,12.52
2023-04-02T08:29:15.466Z,13.02
2023-04-02T08:31:43.240Z,12.92
2023-04-02T08:34:12.442Z,12.14
2023-04-02T08:36:42.484Z,11.63
2023-04-02T08:39:11.902Z,11.61
2023-04-02T08:41:45.677Z,11.17
2023-04-02T08:44:38.774Z,11.42
2023-04-02T08:47:09.015Z,11.51
2023-04-02T08:49:43.788Z,10.82
2023-04-02T08:52:23.050Z,11.59
2023-04-02T08:54:51.727Z,11.39
2023-04-02T08:57:31.118Z,11.57
2023-04-02T09:00:06.937Z,12.65
2023-04-02T09:02:40.585Z,12.17
2023-04-02T09:05:18.866Z,11.85
2023-04-02T09:07:48.179Z,11.51
2023-04-02T09:10:18.356Z,10.93
2023-04-02T09:12:52.588Z,11.84
2023-04-02T09:15:29.934Z,11.83
2023-04-02T09:18:01.022Z,11.32
2023-04-02T09:20:30.387Z,12.09
2023-04-02T09:22:58.910Z,11.98
2023-04-02T09:25:29.702Z,13.07
2023-04-02T09:27:59.410Z,13.64
2023-04-02T09:30:42.621Z,12.62
2023-04-02T09:33:11.217Z,12.99
2023-04-02T09:35:55.870Z,13.23
2023-04-02T09:38:24.871Z,14.07
2023-04-02T09:40:59.982Z,14.14
2023-04-02T09:43:30.635Z,13.57
2023-04-02T09:46:04.101Z,13.88
2023-04-02T09:48:34.840Z,13.62
2023-04-02T09:51:13.359Z,12.78
2023-04-02T09:53:42.670Z,13.09
2023-04-02T09:56:23.153Z,12.65
2023-04-02T09:59:04.314Z,12.74
2023-04-02T10:01:34.173Z,12.12
2023-04-02T10:04:03.983Z,13.66
2023-04-02T10:06:37.092Z,13.62
2023-04-02T10:09:21.745Z,14.15
2023-04-02T10:11:50.828Z,14.00
2023-04-02T10:14:22.647Z,13.46
2023-04-02T10:16:53.342Z,13.99
2023-04-02T10:19:28.786Z,13.94
2023-04-02T10:22:00.810Z,14.83
2023-04-02T10:24:29.713Z,14.11
2023-04-02T10:27:06.835Z,13.36
2023-04-02T10:29:47.607Z,14.74
2023-04-02T10:32:19.628Z,14.52
2023-04-02T10:34:56.470Z,15.05
2023-04-02T10:37:50.159Z,14.77
2023-04-02T10:40:22.939Z,13.59
2023-04-02T10:42:59.302Z,13.94
2023-04-02T10:45:41.293Z,13.99
2023-04-02T10:48:19.772Z,14.84
2023-04-02T10:50:54.976Z,13.27
2023-04-02T10:53:34.834Z,15.17
2023-04-02T10:56:08.784Z,13.10
2023-04-02T10:58:43.074Z,12.80
2023-04-02T11:01:17.185Z,12.70
2023-04-02T11:03:46.802Z,12.88
2023-04-02T11:06:19.991Z,13.31
2023-04-02T11:08:51.587Z,12.87
2023-04-02T11:11:22.660Z,14.51
2023-04-02T11:13:56.188Z,15.86
2023-04-02T11:16:24.448Z,16.26
2023-04-02T11:19:27.203Z,15.44
2023-04-02T11:21:59.457Z,15.70
2023-04-02T11:24:45.058Z,15.45
2023-04-02T11:27:23.901Z,15.47
2023-04-02T11:29:54.971Z,15.02
2023-04-02T11:32:37.252Z,15.31
2023-04-02T11:35:37.536Z,15.05
2023-04-02T11:38:47.297Z,15.12
2023-04-02T11:41:51.576Z,15.11
2023-04-02T11:44:27.620Z,15.20
2023-04-02T11:47:16.006Z,14.84
2023-04-02T11:50:02.457Z,14.59
2023-04-02T11:52:34.998Z,14.43
2023-04-02T11:55:18.993Z,14.07
2023-04-02T11:57:56.713Z,14.65
2023-04-02T12:00:46.484Z,15.15
2023-04-02T12:03:32.132Z,14.22
2023-04-02T12:06:07.405Z,13.76
2023-04-02T12:08:57.024Z,14.16
2023-04-02T12:11:34.442Z,14.42
2023-04-02T12:14:07.875Z,14.85
2023-04-02T12:16:36.316Z,14.83
2023-04-02T12:19:09.673Z,15.20
2023-04-02T12:21:38.743Z,15.07
2023-04-02T12:24:07.780Z,14.96
2023-04-02T12:26:38.411Z,14.66
2023-04-02T12:29:18.062Z,14.85
2023-04-02T12:31:47.643Z,14.68
2023-04-02T12:34:17.295Z,14.03
2023-04-02T12:36:55.717Z,13.63
2023-04-02T12:39:26.694Z,13.58
2023-04-02T12:41:56.285Z,13.41
2023-04-02T12:44:27.042Z,13.25
2023-04-02T12:46:56.067Z,13.09
2023-04-02T12:49:37.810Z,13.20
2023-04-02T12:52:08.158Z,13.19
2023-04-02T12:54:39.229Z,12.84
2023-04-02T12:57:34.468Z,12.74
2023-04-02T13:00:25.805Z,12.57
2023-04-02T13:03:01.994Z,12.51
2023-04-02T13:05:35.555Z,12.79
2023-04-02T13:08:04.047Z,12.74
2023-04-02T13:10:31.917Z,12.63
2023-04-02T13:13:02.024Z,12.59
2023-04-02T13:15:33.282Z,12.61
2023-04-02T13:18:07.331Z,12.57
2023-04-02T13:20:37.552Z,12.81
2023-04-02T13:23:32.646Z,12.35
2023-04-02T13:26:02.010Z,12.38
2023-04-02T13:28:30.013Z,12.58
2023-04-02T13:30:59.383Z,12.86
2023-04-02T13:33:28.616Z,12.61
2023-04-02T13:35:56.489Z,12.67
2023-04-02T13:38:24.377Z,12.43
2023-04-02T13:40:52.397Z,12.67
2023-04-02T13:43:21.182Z,12.33
2023-04-02T13:45:51.542Z,12.14
2023-04-02T13:48:24.505Z,11.78
2023-04-02T13:50:53.425Z,11.78
2023-04-02T13:53:24.694Z,12.14
2023-04-02T13:55:52.655Z,12.24
2023-04-02T13:58:20.383Z,11.72
2023-04-02T14:00:49.028Z,12.14
2023-04-02T14:03:22.620Z,11.88
2023-04-02T14:06:00.692Z,11.92
2023-04-02T14:08:43.392Z,11.54
2023-04-02T14:11:27.046Z,12.03
2023-04-02T14:14:18.643Z,11.94
2023-04-02T14:16:59.697Z,12.23
2023-04-02T14:19:46.214Z,12.04
2023-04-02T14:22:27.728Z,11.76
2023-04-02T14:25:01.903Z,11.87
2023-04-02T14:27:41.884Z,11.81
2023-04-02T14:30:19.822Z,12.39
2023-04-02T14:32:56.610Z,12.13
2023-04-02T14:35:34.777Z,12.63
2023-04-02T14:38:13.072Z,12.49
2023-04-02T14:40:49.282Z,12.03
2023-04-02T14:43:21.337Z,11.65
2023-04-02T14:45:58.669Z,11.31
2023-04-02T14:48:42.776Z,12.00
2023-04-02T14:51:16.907Z,11.63
2023-04-02T14:53:52.573Z,11.62
2023-04-02T14:56:24.921Z,11.77
2023-04-02T14:58:59.246Z,11.16
2023-04-02T15:01:33.809Z,11.46
2023-04-02T15:04:06.102Z,11.33
2023-04-02T15:06:40.998Z,11.11
2023-04-02T15:09:13.914Z,11.12
2023-04-02T15:11:46.179Z,10.99
2023-04-02T15:14:20.057Z,11.08
2023-04-02T15:16:48.325Z,11.22
2023-04-02T15:19:18.512Z,10.79
2023-04-02T15:22:06.077Z,10.97
2023-04-02T15:24:45.394Z,11.27
2023-04-02T15:27:25.743Z,11.34
2023-04-02T15:30:02.375Z,11.65
2023-04-02T15:32:38.129Z,11.39
2023-04-02T15:35:22.129Z,11.13
2023-04-02T15:38:00.759Z,10.84
2023-04-02T15:40:41.857Z,10.89
2023-04-02T15:43:19.743Z,10.97
2023-04-02T15:45:56.401Z,10.79
2023-04-02T15:48:43.589Z,10.93
2023-04-02T15:51:27.214Z,10.68
2023-04-02T15:54:04.492Z,11.11
2023-04-02T15:56:41.833Z,11.02
2023-04-02T15:59:31.135Z,11.30
2023-04-02T16:02:15.772Z,11.28
2023-04-02T16:04:52.319Z,11.23
2023-04-02T16:07:30.284Z,11.47
2023-04-02T16:10:06.032Z,11.27
2023-04-02T16:12:35.888Z,11.38
2023-04-02T16:15:14.793Z,11.23
2023-04-02T16:17:47.022Z,10.72
2023-04-02T16:20:20.467Z,10.48
2023-04-02T16:23:00.381Z,10.55
2023-04-02T16:25:38.066Z,10.63
2023-04-02T16:28:16.055Z,10.55
2023-04-02T16:30:55.519Z,10.37
2023-04-02T16:33:36.865Z,10.06
2023-04-02T16:36:21.421Z,9.91
2023-04-02T16:38:59.206Z,10.25
2023-04-02T16:41:41.323Z,10.15
2023-04-02T16:44:23.807Z,9.74
2023-04-02T16:47:04.349Z,9.87
2023-04-02T16:49:39.129Z,10.19
2023-04-02T16:52:23.696Z,9.98
2023-04-02T16:55:11.965Z,10.16
2023-04-02T16:57:51.471Z,9.69
2023-04-02T17:00:25.426Z,9.63
2023-04-02T17:03:10.008Z,9.76
2023-04-02T17:05:52.213Z,9.66
2023-04-02T17:08:24.156Z,9.79
2023-04-02T17:10:56.112Z,9.59
2023-04-02T17:13:35.052Z,9.59
2023-04-02T17:16:10.223Z,10.05
2023-04-02T17:18:39.339Z,10.03
2023-04-02T17:21:09.426Z,9.64
2023-04-02T17:23:55.903Z,9.43
2023-04-02T17:26:28.179Z,9.54
2023-04-02T17:28:59.462Z,9.78
2023-04-02T17:31:34.991Z,9.53
2023-04-02T17:34:11.948Z,9.65
2023-04-02T17:36:46.310Z,9.19
2023-04-02T17:39:21.385Z,9.65
2023-04-02T17:41:54.262Z,9.50
2023-04-02T17:44:34.646Z,9.59
2023-04-02T17:47:09.710Z,9.34
2023-04-02T17:49:47.746Z,9.19
2023-04-02T17:52:19.613Z,9.13
2023-04-02T17:54:53.827Z,9.08
2023-04-02T17:57:38.415Z,9.18
2023-04-02T18:00:34.237Z,9.02
2023-04-02T18:03:25.605Z,8.73
2023-04-02T18:06:00.011Z,9.07
2023-04-02T18:08:39.102Z,8.63
2023-04-02T18:11:11.734Z,8.90
2023-04-02T18:13:43.115Z,8.81
2023-04-02T18:16:27.906Z,8.55
2023-04-02T18:19:13.342Z,8.84
2023-04-02T18:21:47.841Z,8.55
2023-04-02T18:24:32.323Z,8.22
2023-04-02T18:27:22.410Z,8.53
2023-04-02T18:29:57.500Z,8.48
2023-04-02T18:32:47.351Z,8.70
2023-04-02T18:35:26.256Z,8.60
2023-04-02T18:38:22.386Z,8.64
2023-04-02T18:41:09.601Z,8.15
2023-04-02T18:43:49.378Z,8.07
2023-04-02T18:46:28.938Z,7.74
2023-04-02T18:49:01.127Z,7.80
2023-04-02T18:51:33.166Z,7.85
2023-04-02T18:54:11.988Z,7.67
2023-04-02T18:56:40.424Z,7.61
2023-04-02T18:59:18.090Z,7.45
2023-04-02T19:01:51.342Z,7.81
2023-04-02T19:04:26.693Z,7.63
2023-04-02T19:07:03.694Z,7.37
2023-04-02T19:09:34.829Z,7.62
2023-04-02T19:12:03.829Z,7.52
2023-04-02T19:14:31.617Z,7.47
2023-04-02T19:17:05.605Z,7.49
2023-04-02T19:19:41.076Z,7.41
2023-04-02T19:22:17.826Z,8.03
2023-04-02T19:25:09.365Z,7.54
2023-04-02T19:27:47.974Z,7.85
2023-04-02T19:30:35.043Z,7.62
2023-04-02T19:33:14.842Z,7.79
2023-04-02T19:35:48.736Z,7.67
2023-04-02T19:38:34.528Z,7.65
2023-04-02T19:41:08.169Z,7.52
2023-04-02T19:43:37.019Z,7.72
2023-04-02T19:46:04.944Z,7.56
2023-04-02T19:48:41.531Z,7.35
2023-04-02T19:51:10.799Z,7.49
2023-04-02T19:53:38.623Z,7.54
2023-04-02T19:56:06.359Z,7.14
2023-04-02T19:58:37.002Z,7.25
2023-04-02T20:01:05.141Z,7.22
2023-04-02T20:03:32.994Z,7.59
2023-04-02T20:06:00.974Z,7.47
2023-04-02T20:08:30.537Z,7.22
2023-04-02T20:11:00.050Z,7.21
2023-04-02T20:13:27.868Z,7.46
2023-04-02T20:15:59.494Z,7.29
2023-04-02T20:18:27.648Z,7.41
2023-04-02T20:20:55.754Z,7.29
2023-04-02T20:23:24.188Z,7.51
2023-04-02T20:25:57.230Z,7.15
2023-04-02T20:28:27.311Z,6.86
2023-04-02T20:30:56.761Z,7.33
2023-04-02T20:33:26.195Z,7.47
2023-04-02T20:35:54.590Z,7.30
2023-04-02T20:38:22.450Z,7.20
2023-04-02T20:40:52.888Z,7.36
2023-04-02T20:43:22.644Z,7.57
2023-04-02T20:45:57.371Z,7.61
2023-04-02T20:48:25.772Z,7.52
2023-04-02T20:50:53.608Z,7.54
2023-04-02T20:53:21.495Z,7.56
2023-04-02T20:55:49.781Z,6.85
2023-04-02T20:58:19.066Z,7.27
2023-04-02T21:00:48.157Z,7.78
2023-04-02T21:03:17.127Z,7.42
2023-04-02T21:05:46.387Z,7.42
2023-04-02T21:08:15.197Z,7.36
2023-04-02T21:10:42.913Z,7.38
2023-04-02T21:13:10.740Z,7.41
2023-04-02T21:15:42.466Z,7.11
2023-04-02T21:18:11.641Z,7.02
2023-04-02T21:20:39.524Z,7.11
2023-04-02T21:23:07.317Z,6.86
2023-04-02T21:25:35.160Z,6.61
2023-04-02T21:28:03.910Z,6.95
2023-04-02T21:30:33.118Z,7.08
2023-04-02T21:33:00.932Z,7.16
2023-04-02T21:35:30.167Z,7.26
2023-04-02T21:37:58.369Z,6.79
2023-04-02T21:40:26.017Z,7.18
2023-04-02T21:42:55.424Z,7.07
2023-04-02T21:45:23.132Z,7.36
2023-04-02T21:47:51.025Z,7.49
2023-04-02T21:50:18.830Z,7.37
2023-04-02T21:52:47.944Z,7.29
2023-04-02T21:55:15.801Z,6.65
2023-04-02T21:57:43.545Z,7.09
2023-04-02T22:00:13.733Z,7.16
2023-04-02T22:02:41.557Z,7.26
2023-04-02T22:05:09.622Z,7.43
2023-04-02T22:07:37.401Z,7.16
2023-04-02T22:10:07.389Z,7.23
2023-04-02T22:12:35.129Z,7.32
2023-04-02T22:15:03.017Z,7.64
2023-04-02T22:17:30.770Z,7.22
2023-04-02T22:19:58.503Z,7.00
2023-04-02T22:22:26.331Z,7.10
2023-04-02T22:24:54.036Z,7.70
2023-04-02T22:27:23.207Z,7.41
2023-04-02T22:29:51.020Z,7.29
2023-04-02T22:32:18.733Z,7.25
2023-04-02T22:34:46.713Z,7.50
2023-04-02T22:37:14.383Z,7.22
2023-04-02T22:39:42.075Z,7.48
2023-04-02T22:42:09.821Z,7.28
2023-04-02T22:44:38.891Z,7.37
2023-04-02T22:47:07.481Z,7.55
2023-04-02T22:49:35.162Z,7.69
2023-04-02T22:52:05.771Z,7.80
2023-04-02T22:54:33.609Z,7.14
2023-04-02T22:57:01.505Z,7.09
2023-04-02T22:59:29.328Z,6.98
2023-04-02T23:01:58.949Z,7.30
2023-04-02T23:04:26.714Z,7.20
2023-04-02T23:06:54.407Z,7.12
2023-04-02T23:09:22.167Z,7.18
2023-04-02T23:11:49.870Z,7.52
2023-04-02T23:14:17.601Z,7.41
2023-04-02T23:16:45.331Z,7.62
2023-04-02T23:19:14.538Z,7.30
2023-04-02T23:21:42.249Z,7.33
2023-04-02T23:24:12.139Z,7.14
2023-04-02T23:26:39.889Z,7.28
2023-04-02T23:29:07.654Z,7.00
2023-04-02T23:31:35.497Z,7.23
2023-04-02T23:34:03.241Z,7.03
2023-04-02T23:36:34.103Z,6.91
2023-04-02T23:39:04.088Z,6.86
2023-04-02T23:41:32.293Z,7.56
2023-04-02T23:44:00.406Z,7.52
2023-04-02T23:46:29.548Z,7.15
2023-04-02T23:48:57.783Z,7.56
2023-04-02T23:51:26.686Z,7.37
2023-04-02T23:53:56.461Z,7.07
2023-04-02T23:56:24.989Z,7.76
2023-04-02T23:58:52.929Z,7.63
